createdAt,value
2023-02-26T00:04:20.172Z,3.67
2023-02-26T00:09:25.400Z,3.47
2023-02-26T00:14:44.238Z,3.13
2023-02-26T00:19:47.916Z,2.73
2023-02-26T00:24:52.637Z,3.43
2023-02-26T00:29:56.220Z,2.80
2023-02-26T00:35:00.479Z,2.67
2023-02-26T00:40:23.957Z,3.10
2023-02-26T00:45:27.388Z,2.87
2023-02-26T00:50:31.130Z,2.83
2023-02-26T00:55:35.133Z,3.07
2023-02-26T01:00:37.793Z,2.80
2023-02-26T01:05:41.030Z,2.50
2023-02-26T01:10:45.672Z,2.37
2023-02-26T01:15:53.723Z,2.70
2023-02-26T01:21:00.590Z,2.40
2023-02-26T01:26:09.278Z,2.80
2023-02-26T01:31:19.475Z,2.50
2023-02-26T01:36:25.070Z,2.37
2023-02-26T01:41:36.934Z,2.43
2023-02-26T01:46:55.504Z,2.90
2023-02-26T01:51:59.370Z,2.53
2023-02-26T01:57:06.968Z,2.77
2023-02-26T02:02:12.415Z,3.40
2023-02-26T02:07:16.077Z,2.90
2023-02-26T02:12:30.891Z,3.37
2023-02-26T02:17:46.488Z,3.30
2023-02-26T02:23:03.883Z,3.60
2023-02-26T02:28:20.819Z,3.97
2023-02-26T02:33:32.306Z,3.67
2023-02-26T02:38:38.664Z,3.70
2023-02-26T02:43:43.264Z,3.37
2023-02-26T02:48:53.404Z,3.23
2023-02-26T02:54:01.845Z,3.23
2023-02-26T02:59:11.815Z,3.07
2023-02-26T03:04:17.764Z,3.40
2023-02-26T03:09:20.511Z,3.03
2023-02-26T03:14:23.467Z,3.27
2023-02-26T03:19:34.275Z,2.97
2023-02-26T03:24:41.629Z,2.80
2023-02-26T03:29:48.087Z,2.83
2023-02-26T03:34:56.190Z,2.50
2023-02-26T03:40:04.935Z,2.77
2023-02-26T03:45:11.965Z,3.10
2023-02-26T03:50:20.010Z,2.93
2023-02-26T03:55:28.690Z,2.90
2023-02-26T04:00:33.773Z,3.10
2023-02-26T04:05:42.254Z,2.77
2023-02-26T04:10:48.301Z,2.90
2023-02-26T04:15:51.109Z,3.17
2023-02-26T04:20:55.089Z,2.80
2023-02-26T04:25:57.786Z,2.93
2023-02-26T04:31:01.211Z,2.37
2023-02-26T04:36:05.878Z,2.40
2023-02-26T04:41:08.740Z,2.00
2023-02-26T04:46:11.769Z,1.60
2023-02-26T04:51:15.806Z,1.67
2023-02-26T04:56:18.536Z,1.33
2023-02-26T05:01:21.240Z,1.60
2023-02-26T05:06:25.552Z,1.60
2023-02-26T05:11:28.470Z,2.03
2023-02-26T05:16:31.237Z,1.70
2023-02-26T05:21:35.637Z,2.03
2023-02-26T05:26:38.480Z,2.00
2023-02-26T05:31:41.585Z,1.90
2023-02-26T05:36:48.351Z,2.07
2023-02-26T05:41:51.932Z,2.20
2023-02-26T05:46:55.802Z,1.80
2023-02-26T05:51:59.785Z,1.90
2023-02-26T05:57:04.322Z,2.30
2023-02-26T06:02:07.078Z,2.20
2023-02-26T06:07:11.108Z,2.30
2023-02-26T06:12:13.740Z,2.20
2023-02-26T06:17:16.484Z,2.30
2023-02-26T06:22:59.421Z,2.20
2023-02-26T06:29:05.897Z,2.33
2023-02-26T06:36:43.052Z,2.20
2023-02-26T06:40:48.227Z,2.60
2023-02-26T06:46:42.724Z,2.23
2023-02-26T07:10:02.626Z,2.60
2023-02-26T07:15:20.639Z,3.43
2023-02-26T07:20:52.986Z,2.50
2023-02-26T07:26:33.670Z,2.33
2023-02-26T07:31:59.554Z,2.50
2023-02-26T07:37:24.315Z,2.10
2023-02-26T07:42:43.125Z,1.70
2023-02-26T07:48:03.978Z,2.47
2023-02-26T07:54:12.904Z,2.20
2023-02-26T07:59:43.686Z,2.03
2023-02-26T08:05:30.040Z,2.00
2023-02-26T08:10:50.642Z,1.97
2023-02-26T08:36:03.320Z,1.90
2023-02-26T08:55:10.308Z,1.77
2023-02-26T10:00:54.213Z,1.37
2023-02-26T10:06:14.930Z,1.50
2023-02-26T10:11:27.541Z,0.93
2023-02-26T10:16:43.034Z,1.10
2023-02-26T10:21:50.597Z,0.90
2023-02-26T10:27:02.213Z,1.23
2023-02-26T10:32:21.848Z,1.07
2023-02-26T10:37:34.574Z,1.00
2023-02-26T10:42:44.163Z,0.80
2023-02-26T10:47:59.009Z,0.87
2023-02-26T10:53:03.400Z,1.03
2023-02-26T10:58:13.760Z,0.77
2023-02-26T11:03:24.884Z,0.90
2023-02-26T11:08:31.736Z,0.90
2023-02-26T11:13:37.783Z,0.80
2023-02-26T11:18:46.463Z,0.85
2023-02-26T11:23:52.733Z,1.08
2023-02-26T11:28:58.076Z,1.10
2023-02-26T11:34:08.345Z,0.90
2023-02-26T11:39:20.453Z,1.13
2023-02-26T11:44:33.902Z,2.33
2023-02-26T11:49:45.059Z,1.00
2023-02-26T11:54:50.410Z,1.03
2023-02-26T11:59:55.603Z,1.30
2023-02-26T12:05:03.755Z,1.20
2023-02-26T12:10:16.551Z,0.90
2023-02-26T12:15:28.707Z,0.93
2023-02-26T12:20:41.404Z,0.90
2023-02-26T12:26:05.795Z,0.90
2023-02-26T12:31:31.908Z,0.73
2023-02-26T12:36:50.027Z,1.10
2023-02-26T12:42:03.992Z,1.00
2023-02-26T12:47:26.348Z,1.20
2023-02-26T12:52:57.200Z,0.90
2023-02-26T12:58:24.220Z,1.17
2023-02-26T13:04:01.966Z,1.00
2023-02-26T13:09:15.320Z,0.80
2023-02-26T13:14:32.204Z,1.00
2023-02-26T13:19:43.431Z,1.47
2023-02-26T13:24:53.697Z,1.03
2023-02-26T13:30:07.216Z,1.07
2023-02-26T13:35:21.136Z,1.17
2023-02-26T13:40:44.445Z,1.00
2023-02-26T13:45:56.572Z,1.00
2023-02-26T13:51:06.692Z,0.87
2023-02-26T13:56:15.538Z,1.00
2023-02-26T14:01:20.278Z,0.73
2023-02-26T14:06:42.149Z,0.70
2023-02-26T14:12:01.262Z,0.90
2023-02-26T14:18:11.173Z,0.70
2023-02-26T14:30:14.655Z,1.20
2023-02-26T14:42:33.415Z,1.10
2023-02-26T14:48:06.765Z,1.20
2023-02-26T14:53:37.165Z,0.80
2023-02-26T14:59:05.979Z,1.10
2023-02-26T15:04:47.551Z,1.03
2023-02-26T15:10:12.759Z,1.17
2023-02-26T15:15:35.370Z,1.03
2023-02-26T15:20:49.020Z,1.30
2023-02-26T15:25:52.321Z,1.50
2023-02-26T15:31:26.004Z,2.00
2023-02-26T15:42:06.838Z,1.73
2023-02-26T15:47:17.863Z,2.10
2023-02-26T15:52:29.910Z,2.93
2023-02-26T15:57:33.387Z,2.40
2023-02-26T16:02:37.610Z,2.47
2023-02-26T16:08:01.489Z,3.03
2023-02-26T16:13:05.495Z,3.33
2023-02-26T16:18:10.240Z,2.13
2023-02-26T16:23:17.243Z,2.00
2023-02-26T16:28:22.230Z,2.20
2023-02-26T16:33:26.742Z,2.53
2023-02-26T16:38:34.406Z,2.57
2023-02-26T16:43:58.781Z,2.10
2023-02-26T16:49:04.667Z,2.00
2023-02-26T16:54:15.571Z,2.10
2023-02-26T16:59:21.024Z,2.33
2023-02-26T17:04:26.677Z,3.03
2023-02-26T17:09:38.425Z,3.30
2023-02-26T17:14:43.591Z,3.37
2023-02-26T17:19:46.286Z,3.10
2023-02-26T17:24:52.618Z,3.80
2023-02-26T17:29:55.575Z,4.13
2023-02-26T17:34:59.434Z,5.70
2023-02-26T17:40:04.338Z,3.40
2023-02-26T17:45:08.078Z,3.63
2023-02-26T17:50:23.402Z,2.40
2023-02-26T17:55:27.433Z,1.87
2023-02-26T18:00:30.153Z,2.27
2023-02-26T18:05:38.808Z,2.60
2023-02-26T18:10:42.890Z,3.00
2023-02-26T18:15:45.863Z,2.80
2023-02-26T18:20:48.876Z,4.60
2023-02-26T18:25:56.119Z,4.70
2023-02-26T18:30:59.672Z,4.00
2023-02-26T18:36:02.503Z,4.93
2023-02-26T18:41:06.548Z,4.60
2023-02-26T18:46:10.776Z,3.63
2023-02-26T18:51:13.503Z,3.87
2023-02-26T18:56:17.462Z,2.90
2023-02-26T19:01:20.118Z,3.57
2023-02-26T19:06:23.010Z,4.47
2023-02-26T19:11:27.390Z,4.13
2023-02-26T19:16:34.990Z,3.77
2023-02-26T19:21:40.286Z,3.30
2023-02-26T19:26:44.963Z,3.70
2023-02-26T19:31:47.984Z,4.00
2023-02-26T19:36:51.604Z,4.07
2023-02-26T19:41:56.367Z,4.57
2023-02-26T19:46:59.654Z,5.00
2023-02-26T19:52:02.426Z,5.03
2023-02-26T19:57:06.543Z,4.10
2023-02-26T20:02:10.580Z,5.80
2023-02-26T20:07:13.652Z,6.67
2023-02-26T20:12:17.813Z,6.00
2023-02-26T20:17:20.616Z,5.47
2023-02-26T20:22:24.703Z,3.73
2023-02-26T20:27:28.889Z,4.23
2023-02-26T20:32:31.848Z,3.27
2023-02-26T20:37:34.920Z,2.87
2023-02-26T20:42:39.665Z,2.87
2023-02-26T20:47:43.528Z,2.70
2023-02-26T20:52:46.330Z,2.03
2023-02-26T20:57:51.990Z,2.80
2023-02-26T21:02:55.063Z,2.60
2023-02-26T21:08:01.129Z,2.70
2023-02-26T21:13:08.204Z,3.17
2023-02-26T21:18:16.376Z,2.90
2023-02-26T21:24:00.788Z,2.40
2023-02-26T21:29:29.392Z,2.13
2023-02-26T21:34:50.157Z,2.10
2023-02-26T21:40:02.615Z,1.60
2023-02-26T21:45:28.740Z,2.37
2023-02-26T21:50:32.176Z,2.57
2023-02-26T21:55:34.872Z,2.43
2023-02-26T22:00:43.712Z,2.50
2023-02-26T22:05:50.226Z,2.83
2023-02-26T22:10:54.846Z,3.10
2023-02-26T22:16:01.326Z,3.80
2023-02-26T22:21:05.609Z,2.73
2023-02-26T22:26:08.714Z,2.67
2023-02-26T22:31:12.951Z,2.23
2023-02-26T22:36:15.687Z,2.37
2023-02-26T22:41:18.399Z,1.70
2023-02-26T22:46:24.273Z,1.90
2023-02-26T22:51:28.409Z,2.27
2023-02-26T22:56:31.343Z,1.90
2023-02-26T23:01:35.346Z,2.03
2023-02-26T23:06:38.088Z,2.40
2023-02-26T23:11:40.759Z,1.93
2023-02-26T23:16:44.784Z,2.03
2023-02-26T23:21:47.498Z,2.50
2023-02-26T23:26:50.173Z,2.10
2023-02-26T23:31:54.451Z,1.90
2023-02-26T23:36:57.182Z,1.70
2023-02-26T23:41:59.912Z,2.00
2023-02-26T23:47:04.011Z,2.10
2023-02-26T23:52:06.679Z,2.30
2023-02-26T23:57:09.371Z,2.10
